Hlavní strana
METAR-TAF:

METAR-TAF

Letiště :

Akaba, Jordánsko

zeměpisná šířka: 29-38N, zeměpisná délka: 035-01E, výška: 53 m

Aktuální stav počasí

Zpráva byla vytvořena před 1 hodinou a 23 minutami, v 07:00 UTC
Bezvětří
Teplota 15°C
Vlhkost vzduchu 77%
Tlak 1014 hPa
Viditelnost 10 km a více
Žádná oblačnost pod 1500 m, nevyskytují se cumulonimby.

METAR: OJAQ 110700Z 00000KT CAVOK 15/11 Q1014 NOSIG

Čas: 10:23 (08:23 UTC)

Předpověď počasí

Zpráva byla vytvořena před 3 hodinami a 40 minutami, v 04:43 UTC
Předpověď platná od 11 v 06 UTC do 12 v 12 UTC
Severní vítr 10 kt
Viditelnost: 8000 m
Pravděpodobnost 40%
od 11 v 08 UTC do 11 v 18 UTC
Jižní vítr 10 kt

TAF: OJAQ 110443Z 1106/1212 36010KT 8000 NSC PROB40 1108/1118 19010KT

Stav a předpovědi počasí z více než 4 000 letišť (zprávy METAR a TAF).

Červené a žluté tečky na mapě představují dostupné meteorologické stanice.

Když kurzor umístíte na tečku, zobrazí se název stanice.

Pak kliknutím zobrazíte stav a předpověď počasí.

Chcete-li změnit mapu, kliknutím na zelené tlačítko se znaménkem +mapu přiblížíte, kliknutím na zelené tlačítko se znaménkem – mapu oddálíte a kliknutím na zelené šipky přejdete na sousední mapy.


METAR-TAF: